createdAt,value
2023-05-20T00:07:40.204Z,37.708
2023-05-20T00:22:42.366Z,40.591
2023-05-20T00:37:44.411Z,39.399
2023-05-20T00:52:46.501Z,39.479
2023-05-20T01:07:48.654Z,38.937
2023-05-20T01:22:50.770Z,39.158
2023-05-20T01:37:52.844Z,39.541
2023-05-20T01:52:54.976Z,39.455
2023-05-20T02:07:57.052Z,41.044
2023-05-20T02:22:59.101Z,41.766
2023-05-20T02:38:01.219Z,41.257
2023-05-20T02:53:03.327Z,42.668
2023-05-20T03:08:05.439Z,43.942
2023-05-20T03:23:07.558Z,44.67
2023-05-20T03:38:09.641Z,44.895
2023-05-20T03:53:11.662Z,45.369
2023-05-20T04:08:13.885Z,47.24
2023-05-20T04:23:15.953Z,46.604
2023-05-20T04:38:18.087Z,51.134
2023-05-20T04:53:20.124Z,52.034
2023-05-20T05:08:22.214Z,49.274
2023-05-20T05:23:24.291Z,54.007
2023-05-20T05:38:26.343Z,53.079
2023-05-20T05:53:28.495Z,53.267
2023-05-20T06:08:30.556Z,56.319
2023-05-20T06:23:32.625Z,56.596
2023-05-20T06:38:34.784Z,57.017
2023-05-20T06:53:37.442Z,56.717
2023-05-20T07:08:39.524Z,59.653
2023-05-20T07:23:41.751Z,59.744
2023-05-20T07:38:53.226Z,57.95
2023-05-20T07:54:04.514Z,58.887
2023-05-20T08:09:06.604Z,58.29
2023-05-20T08:24:08.767Z,59.259
2023-05-20T08:39:10.810Z,57.848
2023-05-20T08:54:12.890Z,56.45
2023-05-20T09:09:14.896Z,61.96
2023-05-20T09:24:17.013Z,56.915
2023-05-20T09:39:19.134Z,57.232
2023-05-20T09:54:21.277Z,56.395
2023-05-20T10:09:23.327Z,55.863
2023-05-20T10:24:25.423Z,58.649
2023-05-20T10:39:27.521Z,57.338
2023-05-20T10:54:29.596Z,56.73
2023-05-20T11:09:31.707Z,56.369
2023-05-20T11:24:33.779Z,56.595
2023-05-20T11:39:35.904Z,59.083
2023-05-20T11:54:37.966Z,62.49
2023-05-20T12:09:40.087Z,61.109
2023-05-20T12:24:42.158Z,60.689
2023-05-20T12:39:44.220Z,62.173
2023-05-20T12:54:46.290Z,59.615
2023-05-20T13:09:48.374Z,60.863
2023-05-20T13:24:50.452Z,58.146
2023-05-20T13:39:52.506Z,58.543
2023-05-20T13:54:54.606Z,57.12
2023-05-20T14:09:56.725Z,52.753
2023-05-20T14:24:58.815Z,50.808
2023-05-20T14:40:00.990Z,52.569
2023-05-20T14:55:03.036Z,52.777
2023-05-20T15:10:05.091Z,49.203
2023-05-20T15:25:07.152Z,48.66
2023-05-20T15:40:09.252Z,46.788
2023-05-20T15:55:11.285Z,45.577
2023-05-20T16:10:13.346Z,44.339
2023-05-20T16:25:15.558Z,42.726
2023-05-20T16:40:17.759Z,41.362
2023-05-20T16:55:19.850Z,41.98
2023-05-20T17:10:21.904Z,41.437
2023-05-20T17:25:23.932Z,40.175
2023-05-20T17:40:26.280Z,38.835
2023-05-20T17:55:28.472Z,39.901
2023-05-20T18:10:30.469Z,37.437
2023-05-20T18:25:32.580Z,38.22
2023-05-20T18:40:35.017Z,37.388
2023-05-20T18:55:37.314Z,37.476
2023-05-20T19:10:39.470Z,38.045
2023-05-20T19:25:41.566Z,39.896
2023-05-20T19:40:43.589Z,38.118
2023-05-20T19:55:45.698Z,36.584
2023-05-20T20:10:47.735Z,41.219
2023-05-20T20:25:49.789Z,43.64
2023-05-20T20:40:51.922Z,44.451
2023-05-20T20:55:54.089Z,45.237
2023-05-20T21:10:56.215Z,42.192
2023-05-20T21:25:58.309Z,39.342
2023-05-20T21:41:00.413Z,37.952
2023-05-20T21:56:02.520Z,37.122
2023-05-20T22:11:04.562Z,36.828
2023-05-20T22:26:06.666Z,38.444
2023-05-20T22:41:08.762Z,41.523
2023-05-20T22:56:10.973Z,41.587
2023-05-20T23:11:13.041Z,42.914
2023-05-20T23:26:15.094Z,45.951
2023-05-20T23:41:17.203Z,45.62
2023-05-20T23:56:19.238Z,44.64
